Ana Sayfa
METAR-TAF:

METAR-TAF

Havaalanları :

Kimberley, Güney Afrika

Enlem: 28-48S, Boylam: 024-46E, yükseklik: 1198 m

Güncel hava durumu gözlemi

Rapor saat 07:00 UTC de 25 dakika önce yapıldı.
Rüzgar kuzeybatıdan 8 kt
Sıcaklık 26°C
Nem 34%
Basınç 1015 hPa
Görüş mesafesi 10 km veya daha fazla
1500 m altında bulut yok ve kümülonimbus yok

METAR: FAKM 250700Z 32008KT CAVOK 26/09 Q1015

Saat: 09:25 (07:25 UTC)

Tahmin

Rapor saat 06:00 UTC de 1 saat ve 25 dakika önce yapıldı.
Ayın 25'si saat 07 UTC'den ayın 25'si saat 18 UTC'ye kadar geçerli Tahmin
Rüzgar kuzey/kuzeybatıdan 15 kt
Görüş mesafesi 10 km veya daha fazla
1500 m altında bulut yok ve kümülonimbus yok

TAF: FAKM 250600Z 2507/2518 33015KT CAVOK TX33/2512Z TN20/2518Z

4.000'den fazla havaalanı için hava durumu gözlemleri ve tahminleri (METAR ve TAF raporları).

Kullanılabilir istasyonlar harita üzerinde sarı ve kırmızı noktalarla gösterilir.

İstasyonun adını görmek için fareyi noktanın üzerinde gezdirin.

Sonrasında hava gözlem ve tahminlerini görmek için tıklayın.

Haritayı değiştirmek için: yaklaştırmak için siyah artı işaretli yeşil düğmeye ve uzaklaştırmak için de eksi işaretli düğmeye hızla tıklayın; bitişik haritalar için yeşil okları kullanın.


METAR-TAF: